Pagina principale
METAR-TAF:

METAR-TAF

Aeroporti :

Aerodromo Hinterstoisser-Zeltweg

Zeltweg, Austria

latitudine: 47-12N, longitudine: 014-45E, altezza: 677 m

Osservazione

Il bollettino è stato emesso 35 minuti fa, alle 15:50 UTC
Vento 2 kt da direzioni variabili
Temperature 21°C
Umidità 53%
Pressione 1015 hPa
Visibilità 10 km o più
Poco nuvoloso ad un'altezza di 5500 ft
Nubi sparse ad un'altezza di 9000 ft
Nuvoloso ad un'altezza di 18000 ft

METAR: LOXZ 131550Z VRB02KT 9999 FEW055 SCT090 BKN180 21/11 Q1015

Ora: 18:25 (16:25 UTC)

Previsione

Il bollettino è stato emesso 5 ore e 10 minuti fa, alle 11:15 UTC
Previsione valida dal 13 alle 12 UTC al 13 alle 21 UTC
Vento 3 kt da direzioni variabili
Visibilità 10 km o più
Poco nuvoloso ad un'altezza di 900 ft
Nubi sparse ad un'altezza di 6000 ft
Nuvoloso ad un'altezza di 10000 ft

TAF: LOXZ 131115Z 1312/1321 VRB03KT 9999 FEW009 SCT060 BKN100

Osservazioni e previsioni meteorologiche di più di 4000 aeroporti (messaggi METAR e TAF).

Le stazioni disponibili sono rappresentate dai dischi gialli e rossi sulla carta.

Puntare il mouse per vedere il nome della stazione.

Clicca sopra per visualizzare le osservazioni e previsioni meteorologiche.

Per cambiare la mappa : fare clic sui pulsanti verdi con una croce nera per ingrandire, il pulsante verde con un trattino per diminuire, o sulla freccia verde per le mappe adiacenti.


METAR-TAF: